createdAt,value
2023-05-08T00:00:05.043Z,100.00
2023-05-08T00:02:32.111Z,100.00
2023-05-08T00:04:58.899Z,100.00
2023-05-08T00:07:25.535Z,100.00
2023-05-08T00:09:52.373Z,100.00
2023-05-08T00:12:18.942Z,100.00
2023-05-08T00:14:45.438Z,100.00
2023-05-08T00:17:12.622Z,100.00
2023-05-08T00:19:39.086Z,100.00
2023-05-08T00:22:07.682Z,100.00
2023-05-08T00:24:34.241Z,100.00
2023-05-08T00:27:01.146Z,100.00
2023-05-08T00:29:27.822Z,100.00
2023-05-08T00:31:54.555Z,100.00
2023-05-08T00:34:21.247Z,100.00
2023-05-08T00:36:47.837Z,100.00
2023-05-08T00:39:14.454Z,100.00
2023-05-08T00:41:41.062Z,100.00
2023-05-08T00:44:07.614Z,100.00
2023-05-08T00:46:35.281Z,100.00
2023-05-08T00:49:02.370Z,100.00
2023-05-08T00:51:29.553Z,100.00
2023-05-08T00:53:56.382Z,100.00
2023-05-08T00:56:25.297Z,100.00
2023-05-08T00:58:52.202Z,100.00
2023-05-08T01:01:18.974Z,100.00
2023-05-08T01:03:45.691Z,100.00
2023-05-08T01:06:12.376Z,100.00
2023-05-08T01:08:40.502Z,100.00
2023-05-08T01:11:32.154Z,100.00
2023-05-08T01:14:13.352Z,100.00
2023-05-08T01:16:44.170Z,100.00
2023-05-08T01:19:40.775Z,100.00
2023-05-08T01:22:20.054Z,100.00
2023-05-08T01:25:16.707Z,100.00
2023-05-08T01:28:22.054Z,100.00
2023-05-08T01:31:06.879Z,100.00
2023-05-08T01:33:48.572Z,100.00
2023-05-08T01:36:28.053Z,100.00
2023-05-08T01:39:00.472Z,100.00
2023-05-08T01:41:30.727Z,100.00
2023-05-08T01:44:06.257Z,100.00
2023-05-08T01:46:33.925Z,100.00
2023-05-08T01:49:22.167Z,100.00
2023-05-08T01:52:03.184Z,100.00
2023-05-08T01:54:38.496Z,100.00
2023-05-08T01:57:08.560Z,100.00
2023-05-08T01:59:36.630Z,100.00
2023-05-08T02:02:04.255Z,100.00
2023-05-08T02:04:33.390Z,100.00
2023-05-08T02:07:01.739Z,100.00
2023-05-08T02:09:30.482Z,100.00
2023-05-08T02:11:57.656Z,100.00
2023-05-08T02:14:26.983Z,100.00
2023-05-08T02:16:55.905Z,100.00
2023-05-08T02:19:25.602Z,100.00
2023-05-08T02:21:53.672Z,100.00
2023-05-08T02:24:21.090Z,100.00
2023-05-08T02:26:49.044Z,100.00
2023-05-08T02:29:16.316Z,100.00
2023-05-08T02:31:44.240Z,100.00
2023-05-08T02:34:12.110Z,100.00
2023-05-08T02:36:39.734Z,100.00
2023-05-08T02:39:08.546Z,100.00
2023-05-08T02:41:36.236Z,100.00
2023-05-08T02:44:02.969Z,100.00
2023-05-08T02:46:50.978Z,100.00
2023-05-08T02:49:36.837Z,100.00
2023-05-08T02:52:13.816Z,100.00
2023-05-08T02:54:44.445Z,100.00
2023-05-08T02:57:21.829Z,100.00
2023-05-08T02:59:59.647Z,100.00
2023-05-08T03:02:35.793Z,100.00
2023-05-08T03:05:15.792Z,100.00
2023-05-08T03:07:45.545Z,100.00
2023-05-08T03:10:16.027Z,100.00
2023-05-08T03:12:48.656Z,100.00
2023-05-08T03:15:24.034Z,100.00
2023-05-08T03:17:55.436Z,100.00
2023-05-08T03:20:24.827Z,100.00
2023-05-08T03:22:53.322Z,100.00
2023-05-08T03:25:21.343Z,100.00
2023-05-08T03:27:49.949Z,100.00
2023-05-08T03:30:17.849Z,100.00
2023-05-08T03:32:46.973Z,100.00
2023-05-08T03:35:15.458Z,100.00
2023-05-08T03:37:43.332Z,100.00
2023-05-08T03:40:10.480Z,100.00
2023-05-08T03:42:38.595Z,100.00
2023-05-08T03:45:07.325Z,100.00
2023-05-08T03:47:36.400Z,100.00
2023-05-08T03:50:04.353Z,100.00
2023-05-08T03:52:32.610Z,100.00
2023-05-08T03:54:59.489Z,100.00
2023-05-08T03:57:31.119Z,100.00
2023-05-08T04:00:06.543Z,100.00
2023-05-08T04:02:42.563Z,100.00
2023-05-08T04:05:29.830Z,100.00
2023-05-08T04:08:08.280Z,100.00
2023-05-08T04:10:43.697Z,100.00
2023-05-08T04:13:20.102Z,100.00
2023-05-08T04:16:00.836Z,100.00
2023-05-08T04:18:30.573Z,100.00
2023-05-08T04:20:58.647Z,100.00
2023-05-08T04:23:27.618Z,100.00
2023-05-08T04:25:56.698Z,100.00
2023-05-08T04:28:23.679Z,100.00
2023-05-08T04:30:52.048Z,100.00
2023-05-08T04:33:19.151Z,100.00
2023-05-08T04:35:48.757Z,100.00
2023-05-08T04:38:15.294Z,100.00
2023-05-08T04:40:41.774Z,100.00
2023-05-08T04:43:08.505Z,100.00
2023-05-08T04:45:35.050Z,100.00
2023-05-08T04:48:01.817Z,100.00
2023-05-08T04:50:28.569Z,100.00
2023-05-08T04:52:55.809Z,100.00
2023-05-08T04:55:22.390Z,100.00
2023-05-08T04:57:49.075Z,100.00
2023-05-08T05:00:15.967Z,100.00
2023-05-08T05:02:42.538Z,100.00
2023-05-08T05:05:09.071Z,100.00
2023-05-08T05:07:35.590Z,100.00
2023-05-08T05:10:02.127Z,100.00
2023-05-08T05:12:28.575Z,100.00
2023-05-08T05:14:55.190Z,100.00
2023-05-08T05:17:21.912Z,100.00
2023-05-08T05:19:48.793Z,100.00
2023-05-08T05:22:16.346Z,100.00
2023-05-08T05:24:42.911Z,100.00
2023-05-08T05:27:09.455Z,100.00
2023-05-08T05:29:35.873Z,100.00
2023-05-08T05:32:02.770Z,100.00
2023-05-08T05:34:29.859Z,100.00
2023-05-08T05:36:56.413Z,100.00
2023-05-08T05:39:23.018Z,100.00
2023-05-08T05:41:51.009Z,100.00
2023-05-08T05:44:18.286Z,100.00
2023-05-08T05:46:45.547Z,100.00
2023-05-08T05:49:12.361Z,100.00
2023-05-08T05:51:38.778Z,100.00
2023-05-08T05:54:05.468Z,100.00
2023-05-08T05:56:32.076Z,100.00
2023-05-08T05:58:58.701Z,100.00
2023-05-08T06:01:25.320Z,100.00
2023-05-08T06:03:52.280Z,100.00
2023-05-08T06:06:20.377Z,100.00
2023-05-08T06:08:46.960Z,100.00
2023-05-08T06:11:13.405Z,100.00
2023-05-08T06:13:41.301Z,100.00
2023-05-08T06:16:08.326Z,100.00
2023-05-08T06:18:34.855Z,100.00
2023-05-08T06:21:01.512Z,100.00
2023-05-08T06:23:28.122Z,100.00
2023-05-08T06:25:54.725Z,100.00
2023-05-08T06:28:22.560Z,100.00
2023-05-08T06:30:49.273Z,100.00
2023-05-08T06:33:15.865Z,100.00
2023-05-08T06:35:46.456Z,100.00
2023-05-08T06:38:13.079Z,99.41
2023-05-08T06:40:46.537Z,98.82
2023-05-08T06:43:13.691Z,95.11
2023-05-08T06:45:40.345Z,94.85
2023-05-08T06:48:07.055Z,92.09
2023-05-08T06:50:33.627Z,85.89
2023-05-08T06:53:00.583Z,85.29
2023-05-08T06:55:27.112Z,83.93
2023-05-08T06:57:53.550Z,82.23
2023-05-08T07:00:20.702Z,78.48
2023-05-08T07:02:48.728Z,79.18
2023-05-08T07:05:15.458Z,79.88
2023-05-08T07:07:42.863Z,81.54
2023-05-08T07:10:10.338Z,81.90
2023-05-08T07:12:37.307Z,84.00
2023-05-08T07:15:13.938Z,84.68
2023-05-08T07:17:44.697Z,84.47
2023-05-08T07:20:11.508Z,85.32
2023-05-08T07:22:38.269Z,87.66
2023-05-08T07:25:05.489Z,86.95
2023-05-08T07:27:31.969Z,86.25
2023-05-08T07:29:58.899Z,86.69
2023-05-08T07:32:25.444Z,86.38
2023-05-08T07:34:52.144Z,87.24
2023-05-08T07:37:18.651Z,88.24
2023-05-08T07:39:45.139Z,86.90
2023-05-08T07:42:11.847Z,87.18
2023-05-08T07:44:51.028Z,87.43
2023-05-08T07:47:20.741Z,86.58
2023-05-08T07:49:47.602Z,86.72
2023-05-08T07:52:14.175Z,86.95
2023-05-08T07:54:41.579Z,87.35
2023-05-08T07:57:08.041Z,86.94
2023-05-08T07:59:34.652Z,89.56
2023-05-08T08:02:01.394Z,88.46
2023-05-08T08:04:28.140Z,89.17
2023-05-08T08:06:55.313Z,89.71
2023-05-08T08:09:21.990Z,88.23
2023-05-08T08:11:48.589Z,88.05
2023-05-08T08:14:15.142Z,88.64
2023-05-08T08:16:42.926Z,89.31
2023-05-08T08:19:10.784Z,87.04
2023-05-08T08:21:43.534Z,88.16
2023-05-08T08:24:10.492Z,88.32
2023-05-08T08:26:37.200Z,87.62
2023-05-08T08:29:04.134Z,86.61
2023-05-08T08:31:30.716Z,87.36
2023-05-08T08:33:57.580Z,87.83
2023-05-08T08:36:24.399Z,86.88
2023-05-08T08:38:50.904Z,87.40
2023-05-08T08:41:17.467Z,88.50
2023-05-08T08:43:44.121Z,87.54
2023-05-08T08:46:14.646Z,86.10
2023-05-08T08:48:46.571Z,86.04
2023-05-08T08:51:28.681Z,84.84
2023-05-08T08:54:11.582Z,81.50
2023-05-08T08:56:40.706Z,83.76
2023-05-08T08:59:08.969Z,85.41
2023-05-08T09:01:40.828Z,83.28
2023-05-08T09:04:07.444Z,83.98
2023-05-08T09:06:38.593Z,84.99
2023-05-08T09:09:05.722Z,84.87
2023-05-08T09:11:32.498Z,82.01
2023-05-08T09:13:59.587Z,82.74
2023-05-08T09:16:28.381Z,83.34
2023-05-08T09:18:55.183Z,77.96
2023-05-08T09:21:23.305Z,78.00
2023-05-08T09:23:56.545Z,76.28
2023-05-08T09:26:42.100Z,77.29
2023-05-08T09:29:17.223Z,76.00
2023-05-08T09:31:46.068Z,79.44
2023-05-08T09:34:28.057Z,76.84
2023-05-08T09:37:15.317Z,75.30
2023-05-08T09:39:43.340Z,75.70
2023-05-08T09:42:09.845Z,75.53
2023-05-08T09:44:50.733Z,76.86
2023-05-08T09:47:20.709Z,76.86
2023-05-08T09:50:04.235Z,75.80
2023-05-08T09:52:32.618Z,75.98
2023-05-08T09:55:06.886Z,74.94
2023-05-08T09:57:39.447Z,76.59
2023-05-08T10:00:07.422Z,75.64
2023-05-08T10:02:35.381Z,75.07
2023-05-08T10:05:02.697Z,75.70
2023-05-08T10:07:34.492Z,78.02
2023-05-08T10:10:03.066Z,76.85
2023-05-08T10:12:31.003Z,75.41
2023-05-08T10:14:57.836Z,76.79
2023-05-08T10:17:31.398Z,76.69
2023-05-08T10:20:06.904Z,76.99
2023-05-08T10:22:37.766Z,76.31
2023-05-08T10:25:10.706Z,76.87
2023-05-08T10:28:36.370Z,76.14
2023-05-08T10:31:05.616Z,76.69
2023-05-08T10:33:34.662Z,77.35
2023-05-08T10:36:01.800Z,78.19
2023-05-08T10:38:28.547Z,76.84
2023-05-08T10:40:58.207Z,78.10
2023-05-08T10:43:25.790Z,78.17
2023-05-08T10:45:55.593Z,77.24
2023-05-08T10:48:39.283Z,75.33
2023-05-08T10:51:38.564Z,74.39
2023-05-08T10:54:09.027Z,71.83
2023-05-08T10:56:38.105Z,70.74
2023-05-08T10:59:06.001Z,71.31
2023-05-08T11:01:32.625Z,71.10
2023-05-08T11:03:59.202Z,72.12
2023-05-08T11:06:59.201Z,71.43
2023-05-08T11:09:30.873Z,71.86
2023-05-08T11:12:15.577Z,70.15
2023-05-08T11:14:42.920Z,70.00
2023-05-08T11:17:10.674Z,71.85
2023-05-08T11:19:38.039Z,70.70
2023-05-08T11:22:19.373Z,71.63
2023-05-08T11:25:03.022Z,71.51
2023-05-08T11:27:48.306Z,71.24
2023-05-08T11:30:20.902Z,72.03
2023-05-08T11:33:02.964Z,71.62
2023-05-08T11:35:46.149Z,71.52
2023-05-08T11:38:35.837Z,71.83
2023-05-08T11:41:05.529Z,72.70
2023-05-08T11:43:50.011Z,71.09
2023-05-08T11:46:18.236Z,68.27
2023-05-08T11:48:44.963Z,68.43
2023-05-08T11:51:13.678Z,67.79
2023-05-08T11:53:40.577Z,67.82
2023-05-08T11:56:08.100Z,66.99
2023-05-08T11:58:34.676Z,67.16
2023-05-08T12:01:02.281Z,67.80
2023-05-08T12:03:29.026Z,67.32
2023-05-08T12:05:57.909Z,68.13
2023-05-08T12:08:24.428Z,68.02
2023-05-08T12:10:52.821Z,68.23
2023-05-08T12:13:21.599Z,67.90
2023-05-08T12:15:54.448Z,67.61
2023-05-08T12:18:22.274Z,67.69
2023-05-08T12:20:53.222Z,67.19
2023-05-08T12:23:19.807Z,67.20
2023-05-08T12:25:46.457Z,66.67
2023-05-08T12:28:13.008Z,64.01
2023-05-08T12:30:39.578Z,65.93
2023-05-08T12:33:06.763Z,65.93
2023-05-08T12:35:33.883Z,65.19
2023-05-08T12:38:05.720Z,64.26
2023-05-08T12:40:34.429Z,63.86
2023-05-08T12:43:02.794Z,65.07
2023-05-08T12:45:34.711Z,66.03
2023-05-08T12:48:03.743Z,65.44
2023-05-08T12:50:37.939Z,62.90
2023-05-08T12:53:06.384Z,62.18
2023-05-08T12:55:34.709Z,63.15
2023-05-08T12:58:10.559Z,62.03
2023-05-08T13:00:43.462Z,60.72
2023-05-08T13:03:12.074Z,59.92
2023-05-08T13:05:43.262Z,60.96
2023-05-08T13:08:11.016Z,63.00
2023-05-08T13:10:54.522Z,60.94
2023-05-08T13:13:28.433Z,63.53
2023-05-08T13:15:55.734Z,61.99
2023-05-08T13:18:26.815Z,58.71
2023-05-08T13:20:54.718Z,63.48
2023-05-08T13:23:21.268Z,62.13
2023-05-08T13:25:47.985Z,63.91
2023-05-08T13:28:14.701Z,63.77
2023-05-08T13:30:41.328Z,62.08
2023-05-08T13:33:07.965Z,63.73
2023-05-08T13:35:37.856Z,62.74
2023-05-08T13:38:04.382Z,63.68
2023-05-08T13:40:31.359Z,63.25
2023-05-08T13:42:57.814Z,63.71
2023-05-08T13:45:24.473Z,64.05
2023-05-08T13:47:51.461Z,63.60
2023-05-08T13:50:21.652Z,65.47
2023-05-08T13:52:48.957Z,66.50
2023-05-08T13:55:16.274Z,65.08
2023-05-08T13:57:43.362Z,63.41
2023-05-08T14:00:11.283Z,61.43
2023-05-08T14:02:38.173Z,63.90
2023-05-08T14:05:05.654Z,65.76
2023-05-08T14:07:32.379Z,66.10
2023-05-08T14:09:59.026Z,64.74
2023-05-08T14:12:28.389Z,65.50
2023-05-08T14:14:54.954Z,66.79
2023-05-08T14:17:21.524Z,65.37
2023-05-08T14:19:51.276Z,62.49
2023-05-08T14:22:18.032Z,65.36
2023-05-08T14:24:44.529Z,66.58
2023-05-08T14:27:11.340Z,66.89
2023-05-08T14:29:37.963Z,66.28
2023-05-08T14:32:05.360Z,67.13
2023-05-08T14:34:31.934Z,66.78
2023-05-08T14:36:58.723Z,67.42
2023-05-08T14:39:25.433Z,67.39
2023-05-08T14:42:17.793Z,64.89
2023-05-08T14:44:38.979Z,66.15
2023-05-08T14:47:05.745Z,64.61
2023-05-08T14:49:38.039Z,65.11
2023-05-08T14:52:06.823Z,65.03
2023-05-08T14:54:33.939Z,60.62
2023-05-08T14:57:00.781Z,62.85
2023-05-08T14:59:27.551Z,63.37
2023-05-08T15:01:54.259Z,65.27
2023-05-08T15:04:20.968Z,63.49
2023-05-08T15:06:47.618Z,65.10
2023-05-08T15:09:16.913Z,65.56
2023-05-08T15:11:43.779Z,66.41
2023-05-08T15:14:10.343Z,67.05
2023-05-08T15:16:37.225Z,66.99
2023-05-08T15:19:03.867Z,68.42
2023-05-08T15:21:30.499Z,67.82
2023-05-08T15:23:57.159Z,68.46
2023-05-08T15:26:23.669Z,68.87
2023-05-08T15:28:51.138Z,68.40
2023-05-08T15:31:18.023Z,68.27
2023-05-08T15:33:45.231Z,68.46
2023-05-08T15:36:15.460Z,68.84
2023-05-08T15:38:42.915Z,67.40
2023-05-08T15:41:15.136Z,68.64
2023-05-08T15:43:42.422Z,68.42
2023-05-08T15:46:09.047Z,68.14
2023-05-08T15:48:35.660Z,68.60
2023-05-08T15:51:02.183Z,68.55
2023-05-08T15:53:28.801Z,66.93
2023-05-08T15:55:56.971Z,68.01
2023-05-08T15:58:23.763Z,68.34
2023-05-08T16:00:50.380Z,67.14
2023-05-08T16:03:17.206Z,66.36
2023-05-08T16:05:43.946Z,67.72
2023-05-08T16:08:13.185Z,67.43
2023-05-08T16:10:40.993Z,66.93
2023-05-08T16:13:07.966Z,66.33
2023-05-08T16:15:34.715Z,68.44
2023-05-08T16:18:01.507Z,69.03
2023-05-08T16:20:28.102Z,67.95
2023-05-08T16:22:56.067Z,68.30
2023-05-08T16:25:22.950Z,67.62
2023-05-08T16:27:49.766Z,69.17
2023-05-08T16:30:17.037Z,68.85
2023-05-08T16:32:46.018Z,68.68
2023-05-08T16:35:12.904Z,68.85
2023-05-08T16:37:39.924Z,68.51
2023-05-08T16:40:08.093Z,69.10
2023-05-08T16:42:35.453Z,69.16
2023-05-08T16:45:02.700Z,69.65
2023-05-08T16:47:29.207Z,70.19
2023-05-08T16:49:56.743Z,71.08
2023-05-08T16:52:23.322Z,70.96
2023-05-08T16:54:50.024Z,69.72
2023-05-08T16:57:16.564Z,70.78
2023-05-08T16:59:43.133Z,70.88
2023-05-08T17:02:10.165Z,71.20
2023-05-08T17:04:40.126Z,71.09
2023-05-08T17:07:07.747Z,70.96
2023-05-08T17:09:35.088Z,71.22
2023-05-08T17:12:02.261Z,71.10
2023-05-08T17:14:28.929Z,70.76
2023-05-08T17:16:55.578Z,70.21
2023-05-08T17:19:22.231Z,69.94
2023-05-08T17:21:50.373Z,69.17
2023-05-08T17:24:18.762Z,69.18
2023-05-08T17:26:47.684Z,70.63
2023-05-08T17:29:14.350Z,70.73
2023-05-08T17:31:42.130Z,70.45
2023-05-08T17:34:08.781Z,70.35
2023-05-08T17:36:35.467Z,71.45
2023-05-08T17:39:02.349Z,71.70
2023-05-08T17:41:29.027Z,71.97
2023-05-08T17:43:58.697Z,72.01
2023-05-08T17:46:25.750Z,72.36
2023-05-08T17:48:58.550Z,72.51
2023-05-08T17:51:25.248Z,72.76
2023-05-08T17:54:00.492Z,73.22
2023-05-08T17:56:31.675Z,73.63
2023-05-08T17:59:00.659Z,73.71
2023-05-08T18:01:27.734Z,73.83
2023-05-08T18:03:54.676Z,74.23
2023-05-08T18:06:21.426Z,73.84
2023-05-08T18:08:48.237Z,74.64
2023-05-08T18:11:22.828Z,74.36
2023-05-08T18:13:55.049Z,74.71
2023-05-08T18:16:23.925Z,75.40
2023-05-08T18:18:50.851Z,75.47
2023-05-08T18:24:03.066Z,75.99
2023-05-08T18:26:30.850Z,76.23
2023-05-08T18:28:59.070Z,76.87
2023-05-08T18:31:26.113Z,76.78
2023-05-08T18:33:52.942Z,77.14
2023-05-08T18:36:22.766Z,76.33
2023-05-08T18:38:50.911Z,77.25
2023-05-08T18:41:19.389Z,77.39
2023-05-08T18:44:03.512Z,77.39
2023-05-08T18:46:31.994Z,77.54
2023-05-08T18:49:06.791Z,77.43
2023-05-08T18:51:36.618Z,78.09
2023-05-08T18:54:04.944Z,78.34
2023-05-08T18:56:34.351Z,78.62
2023-05-08T18:59:03.170Z,78.66
2023-05-08T19:01:30.428Z,78.98
2023-05-08T19:03:57.201Z,79.03
2023-05-08T19:06:24.052Z,79.23
2023-05-08T19:08:52.235Z,79.20
2023-05-08T19:11:18.976Z,79.25
2023-05-08T19:13:45.491Z,79.28
2023-05-08T19:16:12.603Z,79.80
2023-05-08T19:18:39.195Z,79.65
2023-05-08T19:21:06.566Z,79.70
2023-05-08T19:23:33.154Z,79.85
2023-05-08T19:25:59.681Z,79.90
2023-05-08T19:28:26.277Z,80.30
2023-05-08T19:30:52.724Z,80.27
2023-05-08T19:33:20.988Z,80.33
2023-05-08T19:35:48.360Z,80.47
2023-05-08T19:38:15.183Z,80.67
2023-05-08T19:40:55.616Z,80.95
2023-05-08T19:43:23.396Z,80.92
2023-05-08T19:45:49.884Z,81.12
2023-05-08T19:48:18.247Z,81.26
2023-05-08T19:50:45.042Z,81.40
2023-05-08T19:53:12.800Z,81.38
2023-05-08T19:55:39.369Z,81.46
2023-05-08T19:58:05.919Z,81.43
2023-05-08T20:00:32.468Z,81.79
2023-05-08T20:02:59.091Z,81.98
2023-05-08T20:05:25.743Z,81.92
2023-05-08T20:07:52.234Z,82.06
2023-05-08T20:10:18.815Z,82.16
2023-05-08T20:12:45.337Z,81.93
2023-05-08T20:15:12.202Z,82.35
2023-05-08T20:17:39.043Z,82.26
2023-05-08T20:20:06.346Z,82.70
2023-05-08T20:22:32.888Z,83.45
2023-05-08T20:25:01.027Z,84.09
2023-05-08T20:27:28.664Z,84.83
2023-05-08T20:29:55.543Z,84.92
2023-05-08T20:32:22.150Z,85.19
2023-05-08T20:34:49.054Z,84.79
2023-05-08T20:37:18.262Z,85.16
2023-05-08T20:39:45.233Z,85.55
2023-05-08T20:42:11.947Z,85.41
2023-05-08T20:44:38.604Z,85.47
2023-05-08T20:47:05.155Z,85.55
2023-05-08T20:49:31.789Z,85.53
2023-05-08T20:51:58.320Z,85.67
2023-05-08T20:54:24.996Z,85.70
2023-05-08T20:56:51.902Z,85.60
2023-05-08T20:59:18.825Z,85.95
2023-05-08T21:01:46.789Z,85.68
2023-05-08T21:04:13.455Z,85.73
2023-05-08T21:06:41.229Z,85.51
2023-05-08T21:09:07.778Z,85.83
2023-05-08T21:11:34.349Z,85.18
2023-05-08T21:14:01.168Z,85.10
2023-05-08T21:16:27.666Z,84.56
2023-05-08T21:18:56.677Z,84.34
2023-05-08T21:21:24.629Z,84.42
2023-05-08T21:23:51.179Z,84.53
2023-05-08T21:26:19.832Z,85.53
2023-05-08T21:28:46.363Z,85.82
2023-05-08T21:31:12.878Z,85.52
2023-05-08T21:33:39.871Z,85.30
2023-05-08T21:36:06.518Z,85.13
2023-05-08T21:38:33.062Z,85.85
2023-05-08T21:41:06.518Z,85.95
2023-05-08T21:43:33.175Z,86.01
2023-05-08T21:45:59.923Z,85.95
2023-05-08T21:48:26.621Z,86.09
2023-05-08T21:50:53.086Z,86.05
2023-05-08T21:53:19.525Z,86.51
2023-05-08T21:55:46.270Z,86.87
2023-05-08T21:58:12.717Z,87.16
2023-05-08T22:00:39.699Z,86.73
2023-05-08T22:03:06.421Z,86.49
2023-05-08T22:05:32.998Z,86.53
2023-05-08T22:07:59.459Z,86.74
2023-05-08T22:10:25.977Z,86.49
2023-05-08T22:12:52.556Z,86.05
2023-05-08T22:15:28.985Z,86.50
2023-05-08T22:17:56.517Z,86.37
2023-05-08T22:20:23.110Z,86.06
2023-05-08T22:22:49.745Z,86.49
2023-05-08T22:25:16.542Z,86.61
2023-05-08T22:27:43.334Z,86.50
2023-05-08T22:30:10.018Z,86.13
2023-05-08T22:32:36.858Z,86.06
2023-05-08T22:35:03.595Z,86.33
2023-05-08T22:37:30.658Z,86.53
2023-05-08T22:39:57.123Z,86.20
2023-05-08T22:42:24.269Z,86.90
2023-05-08T22:44:51.306Z,86.50
2023-05-08T22:47:18.006Z,86.63
2023-05-08T22:49:44.511Z,87.53
2023-05-08T22:52:11.030Z,88.19
2023-05-08T22:54:37.548Z,88.82
2023-05-08T22:57:04.116Z,88.05
2023-05-08T22:59:30.758Z,87.70
2023-05-08T23:01:57.273Z,87.18
2023-05-08T23:04:23.958Z,87.46
2023-05-08T23:06:50.494Z,88.38
2023-05-08T23:09:16.930Z,88.33
2023-05-08T23:11:43.418Z,88.33
2023-05-08T23:14:09.896Z,88.33
2023-05-08T23:16:36.492Z,88.43
2023-05-08T23:19:04.550Z,87.95
2023-05-08T23:21:32.158Z,87.96
2023-05-08T23:23:59.003Z,88.46
2023-05-08T23:26:26.138Z,88.35
2023-05-08T23:28:52.906Z,88.86
2023-05-08T23:31:19.432Z,89.08
2023-05-08T23:33:46.343Z,88.68
2023-05-08T23:36:12.979Z,88.28
2023-05-08T23:38:39.507Z,88.31
2023-05-08T23:41:06.061Z,87.80
2023-05-08T23:43:32.551Z,87.88
2023-05-08T23:45:59.238Z,87.97
2023-05-08T23:48:26.331Z,88.40
2023-05-08T23:50:53.545Z,88.60
2023-05-08T23:53:20.043Z,88.38
2023-05-08T23:55:50.841Z,88.46
2023-05-08T23:58:18.428Z,88.32
